Aeroporto :
LOGIN :

Iscrizione | Disclaimer

   EN    FR    IT 

 










Sommario :    VFR   VFR Marginale   IFR   IFR Intensivo   IFR Molto Intensivo
Visibilità : 
Base nubi : 
>= 8 km
>= 3000ft
5 / 8 km
1000 / 3000 ft
1500m / 5 km
500 / 1000 ft
800 / 1500m
200 / 500 ft
< 800m
< 200 ft
Simboli :   Temporali  Nebbia  Neve Forte  Precipitazioni Forti  Vento > 20 kt
SIGMETs :   Varie  Temporali  Ghiacco  Turbolenza  Onda orograficha  Ceneri Vulcaniche






- Altitudine del aeroporto : 359 ft
- Codice IATA : BVA


LFOB - Beauvais

ULTIMO METAR :
  • 191800Z AUTO 19003KT CAVOK 10/08 Q1005 NOSIG

METARs OBSOLETI :
  • 191730Z AUTO 19003KT CAVOK 11/08 Q1005 NOSIG
  • 191700Z AUTO 17003KT CAVOK 12/09 Q1005 TEMPO BKN025CB
  • 191630Z AUTO 21003KT CAVOK 13/09 Q1005 TEMPO BKN025CB
  • 191600Z AUTO 22005KT 9999 FEW038 14/09 Q1004 TEMPO BKN025CB
  • 191530Z AUTO 21006KT 9999 FEW032 SCT180 14/09 Q1004 TEMPO BKN025CB

TAF TAF LFOB
Valido dal 19 a 18 ore il 20 a 18 ore UTC


191700Z 1918/2018 VRB02KT CAVOK
TEMPO 2000/2012 3000 RA BR BKN007 BKN060
FM201200 03010KT 9999 SCT015 BKN060
ATIS : +33 3 44 11 49 28



MetMap, La meteo Aeronautica in un colpo d'occhio ! - Copyright ORBIFLY Dicembre 2007 - Disclaimer

ORBIFLY MET'MAP TEAM :

Programmazione e sviluppo : Alexandra Zaïnal
Concezione e sviluppo : Baudouin d'Aumeries
Co-Programmazione e sviluppo : Marc-Olivier Méhu
Supporto tecnico e logistico : Manuel Goepfert
Aiuto per la traduzione : Arnaldo La Scala

Contatto : metmap@orbifly.com




FONTI E CREDITI :

   NOAA